sensor_id;sensor_type;location;lat;lon;timestamp;P1;durP1;ratioP1;P2;durP2;ratioP2
26034;SDS011;13809;48.632;11.576;2022-10-19T00:01:20;6.90;;;4.60;;
26034;SDS011;13809;48.632;11.576;2022-10-19T00:06:26;4.40;;;4.00;;
26034;SDS011;13809;48.632;11.576;2022-10-19T00:11:31;5.50;;;4.23;;
26034;SDS011;13809;48.632;11.576;2022-10-19T00:16:35;4.23;;;3.73;;
26034;SDS011;13809;48.632;11.576;2022-10-19T00:21:41;6.60;;;4.40;;
26034;SDS011;13809;48.632;11.576;2022-10-19T00:26:44;4.93;;;3.97;;
26034;SDS011;13809;48.632;11.576;2022-10-19T00:31:48;5.27;;;4.43;;
26034;SDS011;13809;48.632;11.576;2022-10-19T00:36:53;5.07;;;4.07;;
26034;SDS011;13809;48.632;11.576;2022-10-19T00:41:56;4.90;;;4.40;;
26034;SDS011;13809;48.632;11.576;2022-10-19T00:47:00;4.70;;;4.30;;
26034;SDS011;13809;48.632;11.576;2022-10-19T00:52:08;5.17;;;4.50;;
26034;SDS011;13809;48.632;11.576;2022-10-19T00:57:14;4.90;;;4.60;;
26034;SDS011;13809;48.632;11.576;2022-10-19T01:02:17;4.87;;;4.20;;
26034;SDS011;13809;48.632;11.576;2022-10-19T01:07:22;4.20;;;3.90;;
26034;SDS011;13809;48.632;11.576;2022-10-19T01:12:36;4.80;;;4.40;;
26034;SDS011;13809;48.632;11.576;2022-10-19T01:17:53;3.93;;;3.73;;
26034;SDS011;13809;48.632;11.576;2022-10-19T01:23:13;7.97;;;4.80;;
26034;SDS011;13809;48.632;11.576;2022-10-19T01:28:43;4.87;;;4.50;;
26034;SDS011;13809;48.632;11.576;2022-10-19T01:33:58;5.13;;;4.70;;
26034;SDS011;13809;48.632;11.576;2022-10-19T01:39:10;4.60;;;4.20;;
26034;SDS011;13809;48.632;11.576;2022-10-19T01:44:22;4.50;;;4.10;;
26034;SDS011;13809;48.632;11.576;2022-10-19T01:49:33;5.30;;;4.40;;
26034;SDS011;13809;48.632;11.576;2022-10-19T01:54:44;6.80;;;4.57;;
26034;SDS011;13809;48.632;11.576;2022-10-19T01:59:50;4.57;;;4.27;;
26034;SDS011;13809;48.632;11.576;2022-10-19T02:04:56;5.20;;;4.70;;
26034;SDS011;13809;48.632;11.576;2022-10-19T02:10:01;6.50;;;4.40;;
26034;SDS011;13809;48.632;11.576;2022-10-19T02:15:07;5.33;;;4.30;;
26034;SDS011;13809;48.632;11.576;2022-10-19T02:20:15;5.03;;;4.20;;
26034;SDS011;13809;48.632;11.576;2022-10-19T02:25:19;4.50;;;4.10;;
26034;SDS011;13809;48.632;11.576;2022-10-19T02:30:23;4.30;;;4.00;;
26034;SDS011;13809;48.632;11.576;2022-10-19T02:35:28;4.67;;;4.20;;
26034;SDS011;13809;48.632;11.576;2022-10-19T02:40:32;5.03;;;3.93;;
26034;SDS011;13809;48.632;11.576;2022-10-19T02:45:42;5.87;;;3.93;;
26034;SDS011;13809;48.632;11.576;2022-10-19T02:50:52;4.07;;;3.77;;
26034;SDS011;13809;48.632;11.576;2022-10-19T02:55:55;4.80;;;4.30;;
26034;SDS011;13809;48.632;11.576;2022-10-19T03:00:58;4.63;;;4.30;;
26034;SDS011;13809;48.632;11.576;2022-10-19T03:06:02;5.87;;;4.47;;
26034;SDS011;13809;48.632;11.576;2022-10-19T03:11:06;4.37;;;4.07;;
26034;SDS011;13809;48.632;11.576;2022-10-19T03:16:10;4.80;;;4.30;;
26034;SDS011;13809;48.632;11.576;2022-10-19T03:21:15;5.47;;;4.33;;
26034;SDS011;13809;48.632;11.576;2022-10-19T03:26:20;5.80;;;4.37;;
26034;SDS011;13809;48.632;11.576;2022-10-19T03:31:23;5.70;;;4.80;;
26034;SDS011;13809;48.632;11.576;2022-10-19T03:36:29;7.10;;;4.33;;
26034;SDS011;13809;48.632;11.576;2022-10-19T03:41:34;4.83;;;4.27;;
26034;SDS011;13809;48.632;11.576;2022-10-19T03:46:38;4.90;;;4.40;;
26034;SDS011;13809;48.632;11.576;2022-10-19T03:51:42;5.20;;;4.67;;
26034;SDS011;13809;48.632;11.576;2022-10-19T03:56:46;5.63;;;4.97;;
26034;SDS011;13809;48.632;11.576;2022-10-19T04:01:49;9.23;;;4.77;;
26034;SDS011;13809;48.632;11.576;2022-10-19T04:06:53;5.33;;;4.93;;
26034;SDS011;13809;48.632;11.576;2022-10-19T04:11:56;4.90;;;4.40;;
26034;SDS011;13809;48.632;11.576;2022-10-19T04:16:59;6.90;;;5.53;;
26034;SDS011;13809;48.632;11.576;2022-10-19T04:22:04;5.80;;;5.17;;
26034;SDS011;13809;48.632;11.576;2022-10-19T04:27:07;8.47;;;7.60;;
26034;SDS011;13809;48.632;11.576;2022-10-19T04:32:10;12.37;;;10.83;;
26034;SDS011;13809;48.632;11.576;2022-10-19T04:37:15;14.77;;;11.80;;
26034;SDS011;13809;48.632;11.576;2022-10-19T04:42:18;14.33;;;12.87;;
26034;SDS011;13809;48.632;11.576;2022-10-19T04:47:21;15.07;;;13.47;;
26034;SDS011;13809;48.632;11.576;2022-10-19T04:52:25;20.30;;;12.67;;
26034;SDS011;13809;48.632;11.576;2022-10-19T04:57:29;13.77;;;12.47;;
26034;SDS011;13809;48.632;11.576;2022-10-19T05:02:32;12.53;;;11.40;;
26034;SDS011;13809;48.632;11.576;2022-10-19T05:07:37;16.07;;;10.93;;
26034;SDS011;13809;48.632;11.576;2022-10-19T05:12:40;9.77;;;8.97;;
26034;SDS011;13809;48.632;11.576;2022-10-19T05:17:43;10.00;;;9.00;;
26034;SDS011;13809;48.632;11.576;2022-10-19T05:22:47;8.63;;;7.93;;
26034;SDS011;13809;48.632;11.576;2022-10-19T05:27:51;7.63;;;7.03;;
26034;SDS011;13809;48.632;11.576;2022-10-19T05:32:54;7.17;;;6.57;;
26034;SDS011;13809;48.632;11.576;2022-10-19T05:37:59;6.90;;;6.40;;
26034;SDS011;13809;48.632;11.576;2022-10-19T05:43:02;7.20;;;6.60;;
26034;SDS011;13809;48.632;11.576;2022-10-19T05:48:05;7.80;;;7.00;;
26034;SDS011;13809;48.632;11.576;2022-10-19T05:53:09;7.40;;;6.63;;
26034;SDS011;13809;48.632;11.576;2022-10-19T05:58:12;7.53;;;6.87;;
26034;SDS011;13809;48.632;11.576;2022-10-19T06:03:15;7.53;;;7.03;;
26034;SDS011;13809;48.632;11.576;2022-10-19T06:08:20;7.00;;;6.40;;
26034;SDS011;13809;48.632;11.576;2022-10-19T06:13:24;7.20;;;6.60;;
26034;SDS011;13809;48.632;11.576;2022-10-19T06:18:27;8.60;;;7.80;;
26034;SDS011;13809;48.632;11.576;2022-10-19T06:23:32;9.50;;;8.60;;
26034;SDS011;13809;48.632;11.576;2022-10-19T06:28:36;9.10;;;8.27;;
26034;SDS011;13809;48.632;11.576;2022-10-19T06:33:43;13.30;;;9.60;;
26034;SDS011;13809;48.632;11.576;2022-10-19T06:38:51;9.83;;;8.63;;
26034;SDS011;13809;48.632;11.576;2022-10-19T06:43:55;8.20;;;7.50;;
26034;SDS011;13809;48.632;11.576;2022-10-19T06:48:58;8.20;;;7.43;;
26034;SDS011;13809;48.632;11.576;2022-10-19T06:54:04;8.83;;;8.03;;
26034;SDS011;13809;48.632;11.576;2022-10-19T06:59:07;14.47;;;8.03;;
26034;SDS011;13809;48.632;11.576;2022-10-19T07:04:10;9.20;;;7.60;;
26034;SDS011;13809;48.632;11.576;2022-10-19T07:09:15;8.70;;;8.00;;
26034;SDS011;13809;48.632;11.576;2022-10-19T07:14:19;13.10;;;7.97;;
26034;SDS011;13809;48.632;11.576;2022-10-19T07:19:24;8.73;;;7.83;;
26034;SDS011;13809;48.632;11.576;2022-10-19T07:24:29;8.90;;;8.00;;
26034;SDS011;13809;48.632;11.576;2022-10-19T07:29:32;10.30;;;7.47;;
26034;SDS011;13809;48.632;11.576;2022-10-19T07:34:35;8.63;;;7.83;;
26034;SDS011;13809;48.632;11.576;2022-10-19T07:39:40;8.73;;;7.47;;
26034;SDS011;13809;48.632;11.576;2022-10-19T07:44:43;6.90;;;6.40;;
26034;SDS011;13809;48.632;11.576;2022-10-19T07:49:46;6.17;;;5.70;;
26034;SDS011;13809;48.632;11.576;2022-10-19T07:54:51;6.40;;;5.90;;
26034;SDS011;13809;48.632;11.576;2022-10-19T07:59:55;7.70;;;6.17;;
26034;SDS011;13809;48.632;11.576;2022-10-19T08:04:58;6.63;;;6.00;;
26034;SDS011;13809;48.632;11.576;2022-10-19T08:10:09;6.70;;;6.20;;
26034;SDS011;13809;48.632;11.576;2022-10-19T08:15:12;7.13;;;6.43;;
26034;SDS011;13809;48.632;11.576;2022-10-19T08:20:16;6.33;;;5.83;;
26034;SDS011;13809;48.632;11.576;2022-10-19T08:25:20;6.73;;;6.23;;
26034;SDS011;13809;48.632;11.576;2022-10-19T08:30:23;7.13;;;6.53;;
26034;SDS011;13809;48.632;11.576;2022-10-19T08:35:28;8.57;;;7.87;;
26034;SDS011;13809;48.632;11.576;2022-10-19T08:40:32;9.33;;;8.43;;
26034;SDS011;13809;48.632;11.576;2022-10-19T08:45:36;9.97;;;9.03;;
26034;SDS011;13809;48.632;11.576;2022-10-19T08:50:43;9.73;;;8.83;;
26034;SDS011;13809;48.632;11.576;2022-10-19T08:55:53;9.57;;;8.70;;
26034;SDS011;13809;48.632;11.576;2022-10-19T09:01:06;10.60;;;9.60;;
26034;SDS011;13809;48.632;11.576;2022-10-19T09:06:15;9.20;;;8.37;;
26034;SDS011;13809;48.632;11.576;2022-10-19T09:11:26;14.10;;;12.60;;
26034;SDS011;13809;48.632;11.576;2022-10-19T09:16:31;14.23;;;12.83;;
26034;SDS011;13809;48.632;11.576;2022-10-19T09:21:37;19.07;;;17.27;;
26034;SDS011;13809;48.632;11.576;2022-10-19T09:26:50;19.77;;;17.87;;
26034;SDS011;13809;48.632;11.576;2022-10-19T09:31:55;21.27;;;19.17;;
26034;SDS011;13809;48.632;11.576;2022-10-19T09:37:01;19.00;;;17.30;;
26034;SDS011;13809;48.632;11.576;2022-10-19T09:42:09;20.77;;;18.90;;
26034;SDS011;13809;48.632;11.576;2022-10-19T09:47:31;19.93;;;18.13;;
26034;SDS011;13809;48.632;11.576;2022-10-19T09:52:37;15.50;;;14.00;;
26034;SDS011;13809;48.632;11.576;2022-10-19T09:57:43;12.53;;;11.43;;
26034;SDS011;13809;48.632;11.576;2022-10-19T10:02:48;11.20;;;10.30;;
26034;SDS011;13809;48.632;11.576;2022-10-19T10:07:53;10.67;;;9.83;;
26034;SDS011;13809;48.632;11.576;2022-10-19T10:12:58;9.90;;;9.10;;
26034;SDS011;13809;48.632;11.576;2022-10-19T10:18:01;8.17;;;7.53;;
26034;SDS011;13809;48.632;11.576;2022-10-19T10:23:05;6.40;;;5.90;;
26034;SDS011;13809;48.632;11.576;2022-10-19T10:28:24;6.10;;;5.63;;
26034;SDS011;13809;48.632;11.576;2022-10-19T10:33:28;6.50;;;5.90;;
26034;SDS011;13809;48.632;11.576;2022-10-19T10:38:46;6.17;;;5.67;;
26034;SDS011;13809;48.632;11.576;2022-10-19T10:43:55;5.13;;;4.77;;
26034;SDS011;13809;48.632;11.576;2022-10-19T10:49:05;4.13;;;3.73;;
26034;SDS011;13809;48.632;11.576;2022-10-19T10:54:18;3.30;;;3.10;;
26034;SDS011;13809;48.632;11.576;2022-10-19T10:59:25;3.50;;;3.30;;
26034;SDS011;13809;48.632;11.576;2022-10-19T11:04:31;3.27;;;3.07;;
26034;SDS011;13809;48.632;11.576;2022-10-19T11:09:41;2.90;;;2.70;;
26034;SDS011;13809;48.632;11.576;2022-10-19T11:14:50;3.23;;;3.00;;
26034;SDS011;13809;48.632;11.576;2022-10-19T11:19:58;3.50;;;2.57;;
26034;SDS011;13809;48.632;11.576;2022-10-19T11:25:04;2.80;;;2.50;;
26034;SDS011;13809;48.632;11.576;2022-10-19T11:30:27;2.50;;;2.40;;
26034;SDS011;13809;48.632;11.576;2022-10-19T11:35:43;2.70;;;2.50;;
26034;SDS011;13809;48.632;11.576;2022-10-19T11:40:53;2.80;;;2.60;;
26034;SDS011;13809;48.632;11.576;2022-10-19T11:46:20;2.60;;;2.50;;
26034;SDS011;13809;48.632;11.576;2022-10-19T11:51:28;2.53;;;2.33;;
26034;SDS011;13809;48.632;11.576;2022-10-19T11:56:36;2.60;;;2.40;;
26034;SDS011;13809;48.632;11.576;2022-10-19T12:02:09;2.83;;;2.63;;
26034;SDS011;13809;48.632;11.576;2022-10-19T12:07:31;2.87;;;2.67;;
26034;SDS011;13809;48.632;11.576;2022-10-19T12:12:52;2.80;;;2.60;;
26034;SDS011;13809;48.632;11.576;2022-10-19T12:18:02;2.67;;;2.50;;
26034;SDS011;13809;48.632;11.576;2022-10-19T12:23:19;2.50;;;2.40;;
26034;SDS011;13809;48.632;11.576;2022-10-19T12:28:28;3.10;;;2.90;;
26034;SDS011;13809;48.632;11.576;2022-10-19T12:33:38;3.10;;;2.90;;
26034;SDS011;13809;48.632;11.576;2022-10-19T12:38:49;3.20;;;3.00;;
26034;SDS011;13809;48.632;11.576;2022-10-19T12:44:05;3.10;;;2.73;;
26034;SDS011;13809;48.632;11.576;2022-10-19T12:49:35;2.90;;;2.70;;
26034;SDS011;13809;48.632;11.576;2022-10-19T12:54:45;3.00;;;2.73;;
26034;SDS011;13809;48.632;11.576;2022-10-19T12:59:56;3.03;;;2.83;;
26034;SDS011;13809;48.632;11.576;2022-10-19T13:05:02;2.87;;;2.67;;
26034;SDS011;13809;48.632;11.576;2022-10-19T13:10:13;2.97;;;2.77;;
26034;SDS011;13809;48.632;11.576;2022-10-19T13:20:59;2.70;;;2.50;;
26034;SDS011;13809;48.632;11.576;2022-10-19T13:26:22;2.90;;;2.70;;
26034;SDS011;13809;48.632;11.576;2022-10-19T13:31:33;3.73;;;2.93;;
26034;SDS011;13809;48.632;11.576;2022-10-19T13:36:39;2.80;;;2.60;;
26034;SDS011;13809;48.632;11.576;2022-10-19T13:42:00;2.97;;;2.77;;
26034;SDS011;13809;48.632;11.576;2022-10-19T13:52:38;2.47;;;2.37;;
26034;SDS011;13809;48.632;11.576;2022-10-19T13:58:00;2.93;;;2.83;;
26034;SDS011;13809;48.632;11.576;2022-10-19T14:03:27;4.13;;;2.70;;
26034;SDS011;13809;48.632;11.576;2022-10-19T14:08:49;3.03;;;2.83;;
26034;SDS011;13809;48.632;11.576;2022-10-19T14:14:17;3.60;;;3.30;;
26034;SDS011;13809;48.632;11.576;2022-10-19T14:19:23;3.53;;;3.33;;
26034;SDS011;13809;48.632;11.576;2022-10-19T14:24:31;4.17;;;3.00;;
26034;SDS011;13809;48.632;11.576;2022-10-19T14:29:42;3.20;;;3.00;;
26034;SDS011;13809;48.632;11.576;2022-10-19T14:34:46;3.60;;;3.03;;
26034;SDS011;13809;48.632;11.576;2022-10-19T14:39:59;2.73;;;2.53;;
26034;SDS011;13809;48.632;11.576;2022-10-19T14:45:08;3.40;;;3.10;;
26034;SDS011;13809;48.632;11.576;2022-10-19T14:50:14;3.27;;;2.80;;
26034;SDS011;13809;48.632;11.576;2022-10-19T14:55:19;3.50;;;3.00;;
26034;SDS011;13809;48.632;11.576;2022-10-19T15:00:23;3.20;;;3.00;;
26034;SDS011;13809;48.632;11.576;2022-10-19T15:05:32;3.10;;;2.90;;
26034;SDS011;13809;48.632;11.576;2022-10-19T15:10:39;3.33;;;3.07;;
26034;SDS011;13809;48.632;11.576;2022-10-19T15:15:45;3.50;;;3.20;;
26034;SDS011;13809;48.632;11.576;2022-10-19T15:21:00;3.20;;;3.00;;
26034;SDS011;13809;48.632;11.576;2022-10-19T15:26:18;3.90;;;3.00;;
26034;SDS011;13809;48.632;11.576;2022-10-19T15:31:28;3.30;;;3.00;;
26034;SDS011;13809;48.632;11.576;2022-10-19T15:36:31;3.03;;;2.83;;
26034;SDS011;13809;48.632;11.576;2022-10-19T15:41:36;3.50;;;3.20;;
26034;SDS011;13809;48.632;11.576;2022-10-19T15:52:20;3.97;;;3.50;;
26034;SDS011;13809;48.632;11.576;2022-10-19T15:57:26;3.43;;;3.23;;
26034;SDS011;13809;48.632;11.576;2022-10-19T16:02:31;3.47;;;3.17;;
26034;SDS011;13809;48.632;11.576;2022-10-19T16:07:35;4.37;;;3.20;;
26034;SDS011;13809;48.632;11.576;2022-10-19T16:12:42;3.23;;;3.00;;
26034;SDS011;13809;48.632;11.576;2022-10-19T16:17:45;3.80;;;3.37;;
26034;SDS011;13809;48.632;11.576;2022-10-19T16:22:50;3.53;;;3.17;;
26034;SDS011;13809;48.632;11.576;2022-10-19T16:27:55;4.37;;;4.00;;
26034;SDS011;13809;48.632;11.576;2022-10-19T16:32:58;4.90;;;4.33;;
26034;SDS011;13809;48.632;11.576;2022-10-19T16:38:01;4.63;;;4.13;;
26034;SDS011;13809;48.632;11.576;2022-10-19T16:43:06;4.23;;;3.83;;
26034;SDS011;13809;48.632;11.576;2022-10-19T16:48:09;4.00;;;3.70;;
26034;SDS011;13809;48.632;11.576;2022-10-19T16:53:13;8.83;;;4.80;;
26034;SDS011;13809;48.632;11.576;2022-10-19T16:58:17;4.43;;;4.03;;
26034;SDS011;13809;48.632;11.576;2022-10-19T17:03:21;5.97;;;4.27;;
26034;SDS011;13809;48.632;11.576;2022-10-19T17:08:24;7.60;;;4.83;;
26034;SDS011;13809;48.632;11.576;2022-10-19T17:13:46;8.17;;;4.80;;
26034;SDS011;13809;48.632;11.576;2022-10-19T17:18:52;8.63;;;5.53;;
26034;SDS011;13809;48.632;11.576;2022-10-19T17:23:57;8.13;;;7.07;;
26034;SDS011;13809;48.632;11.576;2022-10-19T17:29:03;7.83;;;6.50;;
26034;SDS011;13809;48.632;11.576;2022-10-19T17:34:07;5.40;;;4.90;;
26034;SDS011;13809;48.632;11.576;2022-10-19T17:39:12;5.33;;;4.70;;
26034;SDS011;13809;48.632;11.576;2022-10-19T17:44:19;7.43;;;6.20;;
26034;SDS011;13809;48.632;11.576;2022-10-19T17:49:23;5.60;;;4.50;;
26034;SDS011;13809;48.632;11.576;2022-10-19T17:54:26;5.47;;;5.07;;
26034;SDS011;13809;48.632;11.576;2022-10-19T17:59:30;4.63;;;4.20;;
26034;SDS011;13809;48.632;11.576;2022-10-19T18:04:52;5.37;;;4.40;;
26034;SDS011;13809;48.632;11.576;2022-10-19T18:09:55;5.10;;;4.70;;
26034;SDS011;13809;48.632;11.576;2022-10-19T18:15:00;5.40;;;4.20;;
26034;SDS011;13809;48.632;11.576;2022-10-19T18:20:04;5.07;;;4.67;;
26034;SDS011;13809;48.632;11.576;2022-10-19T18:25:08;6.63;;;5.43;;
26034;SDS011;13809;48.632;11.576;2022-10-19T18:30:13;7.57;;;6.73;;
26034;SDS011;13809;48.632;11.576;2022-10-19T18:35:16;6.00;;;5.50;;
26034;SDS011;13809;48.632;11.576;2022-10-19T18:40:19;8.87;;;8.07;;
26034;SDS011;13809;48.632;11.576;2022-10-19T18:45:23;8.13;;;7.33;;
26034;SDS011;13809;48.632;11.576;2022-10-19T18:50:27;15.20;;;13.70;;
26034;SDS011;13809;48.632;11.576;2022-10-19T18:55:31;12.50;;;10.63;;
26034;SDS011;13809;48.632;11.576;2022-10-19T19:00:36;10.80;;;9.53;;
26034;SDS011;13809;48.632;11.576;2022-10-19T19:05:45;12.90;;;9.57;;
26034;SDS011;13809;48.632;11.576;2022-10-19T19:10:48;10.13;;;9.10;;
26034;SDS011;13809;48.632;11.576;2022-10-19T19:15:57;9.60;;;8.60;;
26034;SDS011;13809;48.632;11.576;2022-10-19T19:21:01;8.27;;;7.57;;
26034;SDS011;13809;48.632;11.576;2022-10-19T19:26:05;8.27;;;7.00;;
26034;SDS011;13809;48.632;11.576;2022-10-19T19:31:10;6.57;;;5.97;;
26034;SDS011;13809;48.632;11.576;2022-10-19T19:36:16;5.87;;;5.23;;
26034;SDS011;13809;48.632;11.576;2022-10-19T19:41:21;6.10;;;5.10;;
26034;SDS011;13809;48.632;11.576;2022-10-19T19:46:26;5.87;;;5.37;;
26034;SDS011;13809;48.632;11.576;2022-10-19T19:51:29;4.77;;;4.37;;
26034;SDS011;13809;48.632;11.576;2022-10-19T19:56:33;5.67;;;4.70;;
26034;SDS011;13809;48.632;11.576;2022-10-19T20:01:38;5.47;;;4.97;;
26034;SDS011;13809;48.632;11.576;2022-10-19T20:06:42;5.10;;;4.70;;
26034;SDS011;13809;48.632;11.576;2022-10-19T20:11:46;6.10;;;5.50;;
26034;SDS011;13809;48.632;11.576;2022-10-19T20:16:50;5.10;;;4.70;;
26034;SDS011;13809;48.632;11.576;2022-10-19T20:21:53;5.73;;;5.23;;
26034;SDS011;13809;48.632;11.576;2022-10-19T20:26:58;5.30;;;4.87;;
26034;SDS011;13809;48.632;11.576;2022-10-19T20:32:03;4.80;;;4.40;;
26034;SDS011;13809;48.632;11.576;2022-10-19T20:37:06;4.63;;;4.23;;
26034;SDS011;13809;48.632;11.576;2022-10-19T20:42:10;4.90;;;4.50;;
26034;SDS011;13809;48.632;11.576;2022-10-19T20:47:15;5.43;;;4.93;;
26034;SDS011;13809;48.632;11.576;2022-10-19T20:52:18;5.70;;;4.93;;
26034;SDS011;13809;48.632;11.576;2022-10-19T20:57:22;5.67;;;5.00;;
26034;SDS011;13809;48.632;11.576;2022-10-19T21:02:26;5.70;;;5.20;;
26034;SDS011;13809;48.632;11.576;2022-10-19T21:07:30;5.83;;;5.30;;
26034;SDS011;13809;48.632;11.576;2022-10-19T21:12:33;5.27;;;4.77;;
26034;SDS011;13809;48.632;11.576;2022-10-19T21:17:38;5.30;;;4.80;;
26034;SDS011;13809;48.632;11.576;2022-10-19T21:22:41;5.67;;;5.17;;
26034;SDS011;13809;48.632;11.576;2022-10-19T21:27:45;5.10;;;4.70;;
26034;SDS011;13809;48.632;11.576;2022-10-19T21:32:49;6.27;;;5.70;;
26034;SDS011;13809;48.632;11.576;2022-10-19T21:37:52;5.60;;;5.20;;
26034;SDS011;13809;48.632;11.576;2022-10-19T21:42:56;6.30;;;5.70;;
26034;SDS011;13809;48.632;11.576;2022-10-19T21:48:00;6.50;;;5.70;;
26034;SDS011;13809;48.632;11.576;2022-10-19T21:53:03;6.30;;;5.80;;
26034;SDS011;13809;48.632;11.576;2022-10-19T21:58:06;5.47;;;5.07;;
26034;SDS011;13809;48.632;11.576;2022-10-19T22:03:11;6.63;;;6.00;;
26034;SDS011;13809;48.632;11.576;2022-10-19T22:08:15;6.40;;;5.83;;
26034;SDS011;13809;48.632;11.576;2022-10-19T22:13:18;7.50;;;6.80;;
26034;SDS011;13809;48.632;11.576;2022-10-19T22:18:22;7.03;;;6.43;;
26034;SDS011;13809;48.632;11.576;2022-10-19T22:23:26;6.67;;;6.17;;
26034;SDS011;13809;48.632;11.576;2022-10-19T22:28:29;6.37;;;5.77;;
26034;SDS011;13809;48.632;11.576;2022-10-19T22:33:34;6.57;;;5.97;;
26034;SDS011;13809;48.632;11.576;2022-10-19T22:38:37;6.10;;;5.60;;
26034;SDS011;13809;48.632;11.576;2022-10-19T22:43:40;7.40;;;6.70;;
26034;SDS011;13809;48.632;11.576;2022-10-19T22:48:45;7.63;;;6.93;;
26034;SDS011;13809;48.632;11.576;2022-10-19T22:53:48;6.83;;;6.33;;
26034;SDS011;13809;48.632;11.576;2022-10-19T22:58:51;7.70;;;7.07;;
26034;SDS011;13809;48.632;11.576;2022-10-19T23:03:56;9.13;;;8.33;;
26034;SDS011;13809;48.632;11.576;2022-10-19T23:08:59;7.97;;;7.20;;
26034;SDS011;13809;48.632;11.576;2022-10-19T23:14:02;8.87;;;8.07;;
26034;SDS011;13809;48.632;11.576;2022-10-19T23:19:07;8.93;;;8.03;;
26034;SDS011;13809;48.632;11.576;2022-10-19T23:24:10;8.80;;;8.00;;
26034;SDS011;13809;48.632;11.576;2022-10-19T23:29:13;8.10;;;7.40;;
26034;SDS011;13809;48.632;11.576;2022-10-19T23:34:18;8.93;;;8.03;;
26034;SDS011;13809;48.632;11.576;2022-10-19T23:39:21;9.03;;;8.23;;
26034;SDS011;13809;48.632;11.576;2022-10-19T23:44:24;9.70;;;7.93;;
26034;SDS011;13809;48.632;11.576;2022-10-19T23:49:28;8.93;;;8.03;;
26034;SDS011;13809;48.632;11.576;2022-10-19T23:54:32;8.83;;;7.53;;
26034;SDS011;13809;48.632;11.576;2022-10-19T23:59:35;8.57;;;7.63;;
